sensor_id;sensor_type;location;lat;lon;timestamp;pressure;altitude;pressure_sealevel;temperature;humidity
48553;BME280;34335;51.566;6.994;2023-05-27T00:02:21;102266.81;;;11.03;100.00
48553;BME280;34335;51.566;6.994;2023-05-27T00:04:46;102269.94;;;10.86;100.00
48553;BME280;34335;51.566;6.994;2023-05-27T00:07:12;102270.47;;;10.73;100.00
48553;BME280;34335;51.566;6.994;2023-05-27T00:09:37;102270.63;;;10.79;100.00
48553;BME280;34335;51.566;6.994;2023-05-27T00:12:02;102259.22;;;10.74;100.00
48553;BME280;34335;51.566;6.994;2023-05-27T00:14:28;102267.09;;;10.75;100.00
48553;BME280;34335;51.566;6.994;2023-05-27T00:16:53;102259.97;;;10.68;100.00
48553;BME280;34335;51.566;6.994;2023-05-27T00:19:20;102258.16;;;10.66;100.00
48553;BME280;34335;51.566;6.994;2023-05-27T00:21:45;102260.78;;;10.66;100.00
48553;BME280;34335;51.566;6.994;2023-05-27T00:24:10;102261.47;;;10.58;100.00
48553;BME280;34335;51.566;6.994;2023-05-27T00:26:36;102263.31;;;10.63;100.00
48553;BME280;34335;51.566;6.994;2023-05-27T00:29:03;102258.88;;;10.58;100.00
48553;BME280;34335;51.566;6.994;2023-05-27T00:31:28;102261.63;;;10.31;100.00
48553;BME280;34335;51.566;6.994;2023-05-27T00:33:54;102264.59;;;10.43;100.00
48553;BME280;34335;51.566;6.994;2023-05-27T00:36:19;102259.72;;;10.24;100.00
48553;BME280;34335;51.566;6.994;2023-05-27T00:38:45;102261.38;;;10.20;100.00
48553;BME280;34335;51.566;6.994;2023-05-27T00:41:11;102266.25;;;10.08;100.00
48553;BME280;34335;51.566;6.994;2023-05-27T00:43:38;102266.38;;;10.12;100.00
48553;BME280;34335;51.566;6.994;2023-05-27T00:46:04;102259.97;;;10.00;100.00
48553;BME280;34335;51.566;6.994;2023-05-27T00:48:29;102256.19;;;10.20;100.00
48553;BME280;34335;51.566;6.994;2023-05-27T00:50:54;102268.47;;;10.27;100.00
48553;BME280;34335;51.566;6.994;2023-05-27T00:53:20;102262.31;;;10.24;100.00
48553;BME280;34335;51.566;6.994;2023-05-27T00:55:47;102261.25;;;10.16;100.00
48553;BME280;34335;51.566;6.994;2023-05-27T00:58:12;102259.84;;;9.95;100.00
48553;BME280;34335;51.566;6.994;2023-05-27T01:00:38;102261.00;;;10.05;100.00
48553;BME280;34335;51.566;6.994;2023-05-27T01:03:04;102255.47;;;9.92;100.00
48553;BME280;34335;51.566;6.994;2023-05-27T01:05:32;102260.34;;;9.81;100.00
48553;BME280;34335;51.566;6.994;2023-05-27T01:08:24;102261.28;;;9.83;100.00
48553;BME280;34335;51.566;6.994;2023-05-27T01:10:54;102254.28;;;9.81;100.00
48553;BME280;34335;51.566;6.994;2023-05-27T01:13:39;102252.50;;;9.78;100.00
48553;BME280;34335;51.566;6.994;2023-05-27T01:16:13;102250.81;;;9.80;100.00
48553;BME280;34335;51.566;6.994;2023-05-27T01:18:42;102248.00;;;9.73;100.00
48553;BME280;34335;51.566;6.994;2023-05-27T01:21:15;102250.44;;;9.66;100.00
48553;BME280;34335;51.566;6.994;2023-05-27T01:23:42;102245.75;;;9.53;100.00
48553;BME280;34335;51.566;6.994;2023-05-27T01:26:07;102245.47;;;9.44;100.00
48553;BME280;34335;51.566;6.994;2023-05-27T01:28:33;102247.03;;;9.39;100.00
48553;BME280;34335;51.566;6.994;2023-05-27T01:31:31;102245.47;;;9.44;100.00
48553;BME280;34335;51.566;6.994;2023-05-27T01:34:03;102246.63;;;9.23;100.00
48553;BME280;34335;51.566;6.994;2023-05-27T01:36:33;102245.34;;;9.39;100.00
48553;BME280;34335;51.566;6.994;2023-05-27T01:39:01;102239.75;;;9.25;100.00
48553;BME280;34335;51.566;6.994;2023-05-27T01:41:27;102238.72;;;9.20;100.00
48553;BME280;34335;51.566;6.994;2023-05-27T01:43:53;102235.56;;;9.00;100.00
48553;BME280;34335;51.566;6.994;2023-05-27T01:46:19;102240.56;;;9.23;100.00
48553;BME280;34335;51.566;6.994;2023-05-27T01:48:45;102236.84;;;9.14;100.00
48553;BME280;34335;51.566;6.994;2023-05-27T01:51:10;102239.66;;;9.22;100.00
48553;BME280;34335;51.566;6.994;2023-05-27T01:53:35;102246.38;;;9.15;100.00
48553;BME280;34335;51.566;6.994;2023-05-27T01:56:01;102229.84;;;9.12;100.00
48553;BME280;34335;51.566;6.994;2023-05-27T01:58:26;102228.91;;;9.10;100.00
48553;BME280;34335;51.566;6.994;2023-05-27T02:00:52;102237.19;;;8.96;100.00
48553;BME280;34335;51.566;6.994;2023-05-27T02:03:17;102228.50;;;8.96;100.00
48553;BME280;34335;51.566;6.994;2023-05-27T02:05:42;102233.06;;;9.03;100.00
48553;BME280;34335;51.566;6.994;2023-05-27T02:08:08;102237.19;;;8.96;100.00
48553;BME280;34335;51.566;6.994;2023-05-27T02:10:33;102230.09;;;8.91;100.00
48553;BME280;34335;51.566;6.994;2023-05-27T02:12:58;102225.69;;;8.88;100.00
48553;BME280;34335;51.566;6.994;2023-05-27T02:15:23;102220.25;;;8.80;100.00
48553;BME280;34335;51.566;6.994;2023-05-27T02:17:49;102234.75;;;8.73;100.00
48553;BME280;34335;51.566;6.994;2023-05-27T02:20:23;102227.50;;;8.63;100.00
48553;BME280;34335;51.566;6.994;2023-05-27T02:22:51;102219.88;;;8.40;100.00
48553;BME280;34335;51.566;6.994;2023-05-27T02:25:17;102222.31;;;8.36;100.00
48553;BME280;34335;51.566;6.994;2023-05-27T02:27:42;102222.94;;;8.54;100.00
48553;BME280;34335;51.566;6.994;2023-05-27T02:30:12;102224.25;;;8.43;100.00
48553;BME280;34335;51.566;6.994;2023-05-27T02:32:38;102228.41;;;8.38;100.00
48553;BME280;34335;51.566;6.994;2023-05-27T02:35:03;102220.06;;;8.47;100.00
48553;BME280;34335;51.566;6.994;2023-05-27T02:37:29;102224.44;;;8.48;100.00
48553;BME280;34335;51.566;6.994;2023-05-27T02:39:55;102229.44;;;8.43;100.00
48553;BME280;34335;51.566;6.994;2023-05-27T02:42:21;102226.84;;;8.43;100.00
48553;BME280;34335;51.566;6.994;2023-05-27T02:44:46;102224.75;;;8.31;100.00
48553;BME280;34335;51.566;6.994;2023-05-27T02:47:12;102222.09;;;8.30;100.00
48553;BME280;34335;51.566;6.994;2023-05-27T02:49:37;102221.00;;;8.23;100.00
48553;BME280;34335;51.566;6.994;2023-05-27T02:52:03;102222.00;;;8.26;100.00
48553;BME280;34335;51.566;6.994;2023-05-27T02:54:28;102216.03;;;8.29;100.00
48553;BME280;34335;51.566;6.994;2023-05-27T02:56:53;102212.41;;;8.24;100.00
48553;BME280;34335;51.566;6.994;2023-05-27T02:59:19;102217.59;;;8.24;100.00
48553;BME280;34335;51.566;6.994;2023-05-27T03:01:44;102213.34;;;8.26;100.00
48553;BME280;34335;51.566;6.994;2023-05-27T03:04:09;102209.63;;;8.18;100.00
48553;BME280;34335;51.566;6.994;2023-05-27T03:06:35;102213.56;;;8.06;100.00
48553;BME280;34335;51.566;6.994;2023-05-27T03:09:01;102214.84;;;8.19;100.00
48553;BME280;34335;51.566;6.994;2023-05-27T03:11:27;102200.91;;;8.16;100.00
48553;BME280;34335;51.566;6.994;2023-05-27T03:13:53;102199.06;;;8.11;100.00
48553;BME280;34335;51.566;6.994;2023-05-27T03:16:18;102205.06;;;8.10;100.00
48553;BME280;34335;51.566;6.994;2023-05-27T03:18:45;102201.38;;;8.04;100.00
48553;BME280;34335;51.566;6.994;2023-05-27T03:21:10;102204.81;;;8.03;100.00
48553;BME280;34335;51.566;6.994;2023-05-27T03:23:36;102201.03;;;7.93;100.00
48553;BME280;34335;51.566;6.994;2023-05-27T03:26:01;102192.88;;;8.08;100.00
48553;BME280;34335;51.566;6.994;2023-05-27T03:28:26;102199.97;;;7.88;100.00
48553;BME280;34335;51.566;6.994;2023-05-27T03:30:51;102205.31;;;7.92;100.00
48553;BME280;34335;51.566;6.994;2023-05-27T03:33:22;102203.03;;;8.02;100.00
48553;BME280;34335;51.566;6.994;2023-05-27T03:35:47;102208.69;;;7.90;100.00
48553;BME280;34335;51.566;6.994;2023-05-27T03:38:12;102204.50;;;7.93;100.00
48553;BME280;34335;51.566;6.994;2023-05-27T03:40:37;102213.91;;;7.91;100.00
48553;BME280;34335;51.566;6.994;2023-05-27T03:43:03;102213.59;;;7.82;100.00
48553;BME280;34335;51.566;6.994;2023-05-27T03:45:28;102210.34;;;7.88;100.00
48553;BME280;34335;51.566;6.994;2023-05-27T03:47:53;102208.72;;;7.91;100.00
48553;BME280;34335;51.566;6.994;2023-05-27T03:50:19;102213.72;;;7.85;100.00
48553;BME280;34335;51.566;6.994;2023-05-27T03:52:44;102211.00;;;7.82;100.00
48553;BME280;34335;51.566;6.994;2023-05-27T03:55:09;102206.66;;;7.81;100.00
48553;BME280;34335;51.566;6.994;2023-05-27T03:57:35;102207.13;;;7.69;100.00
48553;BME280;34335;51.566;6.994;2023-05-27T04:00:01;102205.03;;;7.59;100.00
48553;BME280;34335;51.566;6.994;2023-05-27T04:02:28;102199.72;;;7.56;100.00
48553;BME280;34335;51.566;6.994;2023-05-27T04:04:53;102200.66;;;7.58;100.00
48553;BME280;34335;51.566;6.994;2023-05-27T04:07:18;102206.13;;;7.66;100.00
48553;BME280;34335;51.566;6.994;2023-05-27T04:09:44;102198.47;;;7.69;100.00
48553;BME280;34335;51.566;6.994;2023-05-27T04:12:09;102205.16;;;7.62;100.00
48553;BME280;34335;51.566;6.994;2023-05-27T04:14:34;102204.41;;;7.66;100.00
48553;BME280;34335;51.566;6.994;2023-05-27T04:17:00;102206.44;;;7.75;100.00
48553;BME280;34335;51.566;6.994;2023-05-27T04:19:25;102209.03;;;7.75;100.00
48553;BME280;34335;51.566;6.994;2023-05-27T04:21:51;102208.22;;;7.76;100.00
48553;BME280;34335;51.566;6.994;2023-05-27T04:24:16;102212.25;;;7.68;100.00
48553;BME280;34335;51.566;6.994;2023-05-27T04:26:41;102212.41;;;7.72;100.00
48553;BME280;34335;51.566;6.994;2023-05-27T04:29:08;102210.56;;;7.70;100.00
48553;BME280;34335;51.566;6.994;2023-05-27T04:31:36;102210.56;;;7.70;100.00
48553;BME280;34335;51.566;6.994;2023-05-27T04:34:02;102210.66;;;7.71;100.00
48553;BME280;34335;51.566;6.994;2023-05-27T04:36:28;102208.09;;;7.73;100.00
48553;BME280;34335;51.566;6.994;2023-05-27T04:38:58;102204.72;;;7.75;100.00
48553;BME280;34335;51.566;6.994;2023-05-27T04:41:24;102204.84;;;7.78;100.00
48553;BME280;34335;51.566;6.994;2023-05-27T04:43:53;102204.66;;;7.72;100.00
48553;BME280;34335;51.566;6.994;2023-05-27T04:46:18;102204.72;;;7.75;100.00
48553;BME280;34335;51.566;6.994;2023-05-27T04:48:43;102202.25;;;7.78;100.00
48553;BME280;34335;51.566;6.994;2023-05-27T04:51:11;102192.56;;;7.73;100.00
48553;BME280;34335;51.566;6.994;2023-05-27T04:53:36;102187.63;;;7.79;100.00
48553;BME280;34335;51.566;6.994;2023-05-27T04:56:02;102192.06;;;7.83;100.00
48553;BME280;34335;51.566;6.994;2023-05-27T04:58:27;102189.63;;;7.88;100.00
48553;BME280;34335;51.566;6.994;2023-05-27T05:00:53;102181.88;;;7.89;100.00
48553;BME280;34335;51.566;6.994;2023-05-27T05:03:19;102190.72;;;7.94;100.00
48553;BME280;34335;51.566;6.994;2023-05-27T05:06:01;102182.94;;;7.94;100.00
48553;BME280;34335;51.566;6.994;2023-05-27T05:08:27;102187.59;;;8.05;100.00
48553;BME280;34335;51.566;6.994;2023-05-27T05:10:53;102179.03;;;8.07;100.00
48553;BME280;34335;51.566;6.994;2023-05-27T05:13:18;102183.50;;;8.11;100.00
48553;BME280;34335;51.566;6.994;2023-05-27T05:15:43;102189.19;;;8.27;100.00
48553;BME280;34335;51.566;6.994;2023-05-27T05:18:10;102178.09;;;8.31;100.00
48553;BME280;34335;51.566;6.994;2023-05-27T05:20:36;102181.50;;;8.30;100.00
48553;BME280;34335;51.566;6.994;2023-05-27T05:23:01;102165.34;;;8.39;100.00
48553;BME280;34335;51.566;6.994;2023-05-27T05:25:26;102171.44;;;8.39;100.00
48553;BME280;34335;51.566;6.994;2023-05-27T05:27:52;102162.47;;;8.55;100.00
48553;BME280;34335;51.566;6.994;2023-05-27T05:30:17;102160.03;;;8.62;100.00
48553;BME280;34335;51.566;6.994;2023-05-27T05:32:42;102164.56;;;8.69;100.00
48553;BME280;34335;51.566;6.994;2023-05-27T05:35:08;102158.03;;;8.82;100.00
48553;BME280;34335;51.566;6.994;2023-05-27T05:37:33;102154.09;;;8.95;100.00
48553;BME280;34335;51.566;6.994;2023-05-27T05:39:59;102161.16;;;9.00;100.00
48553;BME280;34335;51.566;6.994;2023-05-27T05:42:24;102158.00;;;9.11;100.00
48553;BME280;34335;51.566;6.994;2023-05-27T05:44:51;102164.25;;;9.17;100.00
48553;BME280;34335;51.566;6.994;2023-05-27T05:47:17;102165.47;;;9.30;100.00
48553;BME280;34335;51.566;6.994;2023-05-27T05:49:42;102164.22;;;9.48;100.00
48553;BME280;34335;51.566;6.994;2023-05-27T05:52:07;102168.66;;;9.52;100.00
48553;BME280;34335;51.566;6.994;2023-05-27T05:54:33;102175.03;;;9.63;100.00
48553;BME280;34335;51.566;6.994;2023-05-27T05:57:00;102178.47;;;9.62;100.00
48553;BME280;34335;51.566;6.994;2023-05-27T05:59:27;102182.22;;;9.74;100.00
48553;BME280;34335;51.566;6.994;2023-05-27T06:01:52;102187.00;;;9.92;100.00
48553;BME280;34335;51.566;6.994;2023-05-27T06:04:17;102177.50;;;9.92;100.00
48553;BME280;34335;51.566;6.994;2023-05-27T06:06:42;102187.31;;;10.04;100.00
48553;BME280;34335;51.566;6.994;2023-05-27T06:09:08;102184.97;;;10.15;100.00
48553;BME280;34335;51.566;6.994;2023-05-27T06:11:33;102175.50;;;10.17;100.00
48553;BME280;34335;51.566;6.994;2023-05-27T06:13:59;102181.91;;;10.32;100.00
48553;BME280;34335;51.566;6.994;2023-05-27T06:16:24;102174.38;;;10.41;100.00
48553;BME280;34335;51.566;6.994;2023-05-27T06:18:50;102180.66;;;10.51;100.00
48553;BME280;34335;51.566;6.994;2023-05-27T06:21:17;102173.97;;;10.62;100.00
48553;BME280;34335;51.566;6.994;2023-05-27T06:23:42;102173.41;;;10.75;100.00
48553;BME280;34335;51.566;6.994;2023-05-27T06:26:07;102176.16;;;10.83;100.00
48553;BME280;34335;51.566;6.994;2023-05-27T06:28:33;102173.72;;;10.91;100.00
48553;BME280;34335;51.566;6.994;2023-05-27T06:30:58;102170.34;;;10.95;100.00
48553;BME280;34335;51.566;6.994;2023-05-27T06:33:23;102154.22;;;11.13;100.00
48553;BME280;34335;51.566;6.994;2023-05-27T06:35:48;102155.25;;;11.21;100.00
48553;BME280;34335;51.566;6.994;2023-05-27T06:38:14;102157.09;;;11.27;100.00
48553;BME280;34335;51.566;6.994;2023-05-27T06:40:39;102150.22;;;11.31;100.00
48553;BME280;34335;51.566;6.994;2023-05-27T06:43:05;102154.06;;;11.50;100.00
48553;BME280;34335;51.566;6.994;2023-05-27T06:45:31;102161.09;;;11.54;100.00
48553;BME280;34335;51.566;6.994;2023-05-27T06:47:56;102148.19;;;11.62;100.00
48553;BME280;34335;51.566;6.994;2023-05-27T06:50:22;102143.44;;;11.90;100.00
48553;BME280;34335;51.566;6.994;2023-05-27T06:52:47;102141.97;;;12.04;100.00
48553;BME280;34335;51.566;6.994;2023-05-27T06:55:12;102150.59;;;12.00;100.00
48553;BME280;34335;51.566;6.994;2023-05-27T06:57:38;102140.28;;;12.08;100.00
48553;BME280;34335;51.566;6.994;2023-05-27T07:00:03;102132.63;;;12.19;100.00
48553;BME280;34335;51.566;6.994;2023-05-27T07:02:30;102126.75;;;12.32;100.00
48553;BME280;34335;51.566;6.994;2023-05-27T07:04:55;102127.00;;;12.49;100.00
48553;BME280;34335;51.566;6.994;2023-05-27T07:07:21;102123.66;;;12.59;100.00
48553;BME280;34335;51.566;6.994;2023-05-27T07:09:46;102123.03;;;12.79;100.00
48553;BME280;34335;51.566;6.994;2023-05-27T07:12:11;102119.84;;;13.05;100.00
48553;BME280;34335;51.566;6.994;2023-05-27T07:14:36;102126.03;;;13.15;100.00
48553;BME280;34335;51.566;6.994;2023-05-27T07:17:02;102130.50;;;13.22;100.00
48553;BME280;34335;51.566;6.994;2023-05-27T07:19:27;102118.34;;;13.27;100.00
48553;BME280;34335;51.566;6.994;2023-05-27T07:21:52;102112.44;;;13.44;100.00
48553;BME280;34335;51.566;6.994;2023-05-27T07:24:18;102108.19;;;13.53;100.00
48553;BME280;34335;51.566;6.994;2023-05-27T07:26:43;102108.34;;;13.70;100.00
48553;BME280;34335;51.566;6.994;2023-05-27T07:29:08;102116.97;;;13.62;100.00
48553;BME280;34335;51.566;6.994;2023-05-27T07:31:34;102107.66;;;13.99;100.00
48553;BME280;34335;51.566;6.994;2023-05-27T07:33:59;102104.19;;;14.00;100.00
48553;BME280;34335;51.566;6.994;2023-05-27T07:36:25;102107.00;;;14.31;100.00
48553;BME280;34335;51.566;6.994;2023-05-27T07:38:50;102109.69;;;14.41;100.00
48553;BME280;34335;51.566;6.994;2023-05-27T07:41:15;102106.25;;;14.57;100.00
48553;BME280;34335;51.566;6.994;2023-05-27T07:43:41;102102.00;;;14.69;100.00
48553;BME280;34335;51.566;6.994;2023-05-27T07:46:06;102109.06;;;14.88;100.00
48553;BME280;34335;51.566;6.994;2023-05-27T07:48:31;102100.34;;;14.99;100.00
48553;BME280;34335;51.566;6.994;2023-05-27T07:50:57;102092.47;;;14.91;100.00
48553;BME280;34335;51.566;6.994;2023-05-27T07:53:22;102096.00;;;15.07;100.00
48553;BME280;34335;51.566;6.994;2023-05-27T07:55:48;102106.56;;;15.27;100.00
48553;BME280;34335;51.566;6.994;2023-05-27T07:58:13;102093.44;;;15.42;100.00
48553;BME280;34335;51.566;6.994;2023-05-27T08:00:39;102097.84;;;15.61;100.00
48553;BME280;34335;51.566;6.994;2023-05-27T08:03:04;102089.09;;;15.71;100.00
48553;BME280;34335;51.566;6.994;2023-05-27T08:05:29;102095.25;;;15.92;100.00
48553;BME280;34335;51.566;6.994;2023-05-27T08:07:55;102089.06;;;16.14;100.00
48553;BME280;34335;51.566;6.994;2023-05-27T08:10:20;102091.69;;;16.16;100.00
48553;BME280;34335;51.566;6.994;2023-05-27T08:12:46;102089.03;;;16.39;100.00
48553;BME280;34335;51.566;6.994;2023-05-27T08:15:11;102086.31;;;16.56;100.00
48553;BME280;34335;51.566;6.994;2023-05-27T08:17:36;102088.97;;;16.55;100.00
48553;BME280;34335;51.566;6.994;2023-05-27T08:20:02;102079.28;;;16.67;100.00
48553;BME280;34335;51.566;6.994;2023-05-27T08:22:28;102077.44;;;16.85;100.00
48553;BME280;34335;51.566;6.994;2023-05-27T08:24:54;102069.63;;;16.74;100.00
48553;BME280;34335;51.566;6.994;2023-05-27T08:27:19;102068.63;;;17.00;100.00
48553;BME280;34335;51.566;6.994;2023-05-27T08:29:46;102061.47;;;17.22;100.00
48553;BME280;34335;51.566;6.994;2023-05-27T08:32:11;102061.31;;;17.46;100.00
48553;BME280;34335;51.566;6.994;2023-05-27T08:34:36;102058.78;;;17.30;100.00
48553;BME280;34335;51.566;6.994;2023-05-27T08:37:02;102052.31;;;17.70;100.00
48553;BME280;34335;51.566;6.994;2023-05-27T08:39:29;102050.34;;;17.97;100.00
48553;BME280;34335;51.566;6.994;2023-05-27T08:41:54;102041.78;;;17.71;98.02
48553;BME280;34335;51.566;6.994;2023-05-27T08:44:23;102049.47;;;17.93;99.75
48553;BME280;34335;51.566;6.994;2023-05-27T08:46:49;102047.38;;;18.26;100.00
48553;BME280;34335;51.566;6.994;2023-05-27T08:49:15;102048.31;;;18.20;89.94
48553;BME280;34335;51.566;6.994;2023-05-27T08:51:41;102044.63;;;18.35;97.28
48553;BME280;34335;51.566;6.994;2023-05-27T08:54:08;102043.34;;;18.67;99.07
48553;BME280;34335;51.566;6.994;2023-05-27T08:56:34;102034.91;;;19.08;100.00
48553;BME280;34335;51.566;6.994;2023-05-27T08:59:00;102030.91;;;18.77;85.88
48553;BME280;34335;51.566;6.994;2023-05-27T09:01:26;102031.53;;;18.98;90.39
48553;BME280;34335;51.566;6.994;2023-05-27T09:03:54;102029.88;;;18.88;85.83
48553;BME280;34335;51.566;6.994;2023-05-27T09:06:20;102021.31;;;18.73;87.30
48553;BME280;34335;51.566;6.994;2023-05-27T09:08:45;102012.69;;;19.23;88.35
48553;BME280;34335;51.566;6.994;2023-05-27T09:11:19;102010.97;;;19.20;84.55
48553;BME280;34335;51.566;6.994;2023-05-27T09:13:46;102004.22;;;19.55;84.89
48553;BME280;34335;51.566;6.994;2023-05-27T09:16:11;102006.69;;;19.65;84.32
48553;BME280;34335;51.566;6.994;2023-05-27T09:18:36;102001.47;;;19.61;81.35
48553;BME280;34335;51.566;6.994;2023-05-27T09:21:02;101995.13;;;19.72;88.10
48553;BME280;34335;51.566;6.994;2023-05-27T09:23:28;101998.06;;;20.05;83.06
48553;BME280;34335;51.566;6.994;2023-05-27T09:25:53;101998.44;;;19.82;74.94
48553;BME280;34335;51.566;6.994;2023-05-27T09:28:25;101993.94;;;20.32;83.88
48553;BME280;34335;51.566;6.994;2023-05-27T09:30:52;101996.69;;;20.28;79.54
48553;BME280;34335;51.566;6.994;2023-05-27T09:33:23;101994.16;;;20.23;79.11
48553;BME280;34335;51.566;6.994;2023-05-27T09:35:50;101981.56;;;20.75;87.29
48553;BME280;34335;51.566;6.994;2023-05-27T09:38:15;101983.31;;;20.76;75.59
48553;BME280;34335;51.566;6.994;2023-05-27T09:40:43;101983.38;;;21.11;82.70
48553;BME280;34335;51.566;6.994;2023-05-27T09:43:12;101984.28;;;20.72;71.77
48553;BME280;34335;51.566;6.994;2023-05-27T09:45:39;101977.00;;;21.20;80.11
48553;BME280;34335;51.566;6.994;2023-05-27T09:48:06;101977.50;;;21.34;80.10
48553;BME280;34335;51.566;6.994;2023-05-27T09:50:33;101968.84;;;21.62;75.90
48553;BME280;34335;51.566;6.994;2023-05-27T09:53:00;101969.59;;;21.32;67.50
48553;BME280;34335;51.566;6.994;2023-05-27T09:55:28;101974.06;;;21.65;73.90
48553;BME280;34335;51.566;6.994;2023-05-27T09:57:54;101974.19;;;21.92;72.50
48553;BME280;34335;51.566;6.994;2023-05-27T10:00:20;101972.94;;;22.05;70.89
48553;BME280;34335;51.566;6.994;2023-05-27T10:02:47;101969.53;;;22.02;66.76
48553;BME280;34335;51.566;6.994;2023-05-27T10:05:13;101966.94;;;21.99;65.92
48553;BME280;34335;51.566;6.994;2023-05-27T10:07:41;101961.47;;;22.05;68.63
48553;BME280;34335;51.566;6.994;2023-05-27T10:10:12;101963.06;;;22.10;64.13
48553;BME280;34335;51.566;6.994;2023-05-27T10:12:38;101965.78;;;22.37;67.16
48553;BME280;34335;51.566;6.994;2023-05-27T10:15:05;101941.88;;;22.40;66.26
48553;BME280;34335;51.566;6.994;2023-05-27T10:17:47;101944.88;;;22.58;68.64
48553;BME280;34335;51.566;6.994;2023-05-27T10:20:12;101940.47;;;22.59;64.84
48553;BME280;34335;51.566;6.994;2023-05-27T10:22:42;101944.56;;;22.67;60.73
48553;BME280;34335;51.566;6.994;2023-05-27T10:25:13;101951.19;;;22.24;57.24
48553;BME280;34335;51.566;6.994;2023-05-27T10:27:46;101939.97;;;22.46;61.80
48553;BME280;34335;51.566;6.994;2023-05-27T10:30:15;101939.31;;;22.07;62.33
48553;BME280;34335;51.566;6.994;2023-05-27T10:32:47;101935.22;;;22.84;62.16
48553;BME280;34335;51.566;6.994;2023-05-27T10:35:13;101932.81;;;22.76;62.40
48553;BME280;34335;51.566;6.994;2023-05-27T10:37:41;101924.53;;;22.59;58.48
48553;BME280;34335;51.566;6.994;2023-05-27T10:40:07;101931.16;;;22.72;59.56
48553;BME280;34335;51.566;6.994;2023-05-27T10:42:32;101922.75;;;22.86;57.27
48553;BME280;34335;51.566;6.994;2023-05-27T10:45:06;101919.31;;;23.09;57.04
48553;BME280;34335;51.566;6.994;2023-05-27T10:47:34;101920.41;;;22.77;53.64
48553;BME280;34335;51.566;6.994;2023-05-27T10:50:12;101915.50;;;23.18;56.49
48553;BME280;34335;51.566;6.994;2023-05-27T10:52:39;101911.06;;;23.44;56.31
48553;BME280;34335;51.566;6.994;2023-05-27T10:55:05;101911.56;;;23.30;55.14
48553;BME280;34335;51.566;6.994;2023-05-27T10:57:32;101912.06;;;22.62;49.71
48553;BME280;34335;51.566;6.994;2023-05-27T11:00:01;101903.66;;;23.28;55.77
48553;BME280;34335;51.566;6.994;2023-05-27T11:02:30;101908.03;;;23.78;55.99
48553;BME280;34335;51.566;6.994;2023-05-27T11:05:08;101914.78;;;23.63;54.99
48553;BME280;34335;51.566;6.994;2023-05-27T11:07:37;101898.25;;;24.04;55.52
48553;BME280;34335;51.566;6.994;2023-05-27T11:10:03;101901.56;;;23.86;55.38
48553;BME280;34335;51.566;6.994;2023-05-27T11:12:30;101900.94;;;24.03;54.35
48553;BME280;34335;51.566;6.994;2023-05-27T11:14:56;101896.09;;;23.67;50.57
48553;BME280;34335;51.566;6.994;2023-05-27T11:17:22;101892.22;;;24.23;51.73
48553;BME280;34335;51.566;6.994;2023-05-27T11:19:48;101883.53;;;23.95;49.56
48553;BME280;34335;51.566;6.994;2023-05-27T11:22:15;101883.44;;;24.21;50.71
48553;BME280;34335;51.566;6.994;2023-05-27T11:24:42;101880.28;;;24.33;52.30
48553;BME280;34335;51.566;6.994;2023-05-27T11:27:14;101870.88;;;24.47;47.65
48553;BME280;34335;51.566;6.994;2023-05-27T11:29:48;101874.16;;;24.53;52.37
48553;BME280;34335;51.566;6.994;2023-05-27T11:32:16;101864.16;;;24.58;51.50
48553;BME280;34335;51.566;6.994;2023-05-27T11:34:43;101863.66;;;24.28;48.64
48553;BME280;34335;51.566;6.994;2023-05-27T11:37:09;101852.88;;;24.53;49.25
48553;BME280;34335;51.566;6.994;2023-05-27T11:39:34;101856.19;;;24.58;49.77
48553;BME280;34335;51.566;6.994;2023-05-27T11:42:05;101853.75;;;24.76;50.86
48553;BME280;34335;51.566;6.994;2023-05-27T11:44:34;101843.66;;;24.40;48.95
48553;BME280;34335;51.566;6.994;2023-05-27T11:47:00;101840.56;;;24.51;48.71
48553;BME280;34335;51.566;6.994;2023-05-27T11:49:25;101840.03;;;24.63;47.62
48553;BME280;34335;51.566;6.994;2023-05-27T11:51:51;101830.47;;;24.59;49.13
48553;BME280;34335;51.566;6.994;2023-05-27T11:54:24;101826.06;;;24.37;45.79
48553;BME280;34335;51.566;6.994;2023-05-27T11:56:50;101829.94;;;24.94;47.39
48553;BME280;34335;51.566;6.994;2023-05-27T11:59:17;101830.13;;;25.10;46.57
48553;BME280;34335;51.566;6.994;2023-05-27T12:01:43;101824.66;;;24.92;45.69
48553;BME280;34335;51.566;6.994;2023-05-27T12:04:08;101835.50;;;24.87;46.30
48553;BME280;34335;51.566;6.994;2023-05-27T12:06:35;101822.34;;;25.05;47.14
48553;BME280;34335;51.566;6.994;2023-05-27T12:09:02;101823.59;;;24.96;44.18
48553;BME280;34335;51.566;6.994;2023-05-27T12:11:27;101821.22;;;25.30;45.68
48553;BME280;34335;51.566;6.994;2023-05-27T12:13:53;101814.56;;;25.00;47.25
48553;BME280;34335;51.566;6.994;2023-05-27T12:16:18;101808.91;;;25.27;46.83
48553;BME280;34335;51.566;6.994;2023-05-27T12:18:44;101801.53;;;23.62;40.61
48553;BME280;34335;51.566;6.994;2023-05-27T12:21:11;101800.88;;;25.08;46.87
48553;BME280;34335;51.566;6.994;2023-05-27T12:23:36;101793.53;;;24.94;46.42
48553;BME280;34335;51.566;6.994;2023-05-27T12:26:01;101783.47;;;25.60;48.04
48553;BME280;34335;51.566;6.994;2023-05-27T12:28:27;101791.25;;;25.64;46.92
48553;BME280;34335;51.566;6.994;2023-05-27T12:30:52;101779.97;;;25.96;47.96
48553;BME280;34335;51.566;6.994;2023-05-27T12:33:18;101776.16;;;25.82;45.83
48553;BME280;34335;51.566;6.994;2023-05-27T12:35:43;101781.50;;;25.82;46.97
48553;BME280;34335;51.566;6.994;2023-05-27T12:38:09;101782.00;;;25.91;47.32
48553;BME280;34335;51.566;6.994;2023-05-27T12:40:34;101772.97;;;26.12;46.41
48553;BME280;34335;51.566;6.994;2023-05-27T12:43:00;101770.59;;;26.06;45.83
48553;BME280;34335;51.566;6.994;2023-05-27T12:45:25;101769.03;;;26.72;46.23